Time;durP1;ratioP1;P1;durP2;ratioP2;P2;SDS_P1;SDS_P2;PMS_P1;PMS_P2;Temp;Humidity;BMP_temperature;BMP_pressure;BME280_temperature;BME280_humidity;BME280_pressure;Samples;Min_cycle;Max_cycle;Signal;HPM_P1;HPM_P2
2024/01/09 00:01:30;;;;;;;4.13;2.70;;;;;;;17.96;34.45;103440.25;5042064;28;20041;-45
2024/01/09 00:03:56;;;;;;;4.53;2.63;;;;;;;17.93;34.54;103429.69;5041583;28;20041;-43
2024/01/09 00:06:22;;;;;;;5.43;2.38;;;;;;;17.92;34.54;103430.75;5039477;28;20025;-43
2024/01/09 00:08:47;;;;;;;3.53;2.80;;;;;;;17.90;34.56;103419.13;5045942;28;20033;-43
2024/01/09 00:11:13;;;;;;;3.70;2.65;;;;;;;17.87;34.66;103428.66;5041563;28;20035;-44
2024/01/09 00:13:39;;;;;;;7.13;2.60;;;;;;;17.86;34.62;103428.88;5050908;28;20107;-44
2024/01/09 00:16:04;;;;;;;5.28;2.67;;;;;;;17.84;34.60;103431.84;5040903;28;20103;-43
2024/01/09 00:18:29;;;;;;;3.58;2.50;;;;;;;17.80;35.03;103425.06;5042842;28;20044;-42
2024/01/09 00:20:55;;;;;;;4.68;2.83;;;;;;;17.77;34.82;103418.09;5056958;28;20521;-40
2024/01/09 00:23:20;;;;;;;3.38;2.55;;;;;;;17.76;34.93;103423.81;5043765;28;20504;-43
2024/01/09 00:25:46;;;;;;;3.95;3.15;;;;;;;17.73;34.84;103416.84;5041893;28;20024;-40
2024/01/09 00:28:11;;;;;;;3.60;2.55;;;;;;;17.70;34.85;103416.44;5040894;28;20033;-44
2024/01/09 00:30:36;;;;;;;2.67;2.40;;;;;;;17.69;34.85;103417.50;5038823;28;20037;-43
2024/01/09 00:33:02;;;;;;;5.28;2.83;;;;;;;17.66;35.12;103424.25;5042923;28;20039;-41
2024/01/09 00:35:27;;;;;;;6.47;3.00;;;;;;;17.63;35.11;103414.53;5040850;28;20067;-42
2024/01/09 00:37:53;;;;;;;4.85;2.83;;;;;;;17.63;35.04;103430.13;5049251;28;20024;-45
2024/01/09 00:40:18;;;;;;;3.83;2.20;;;;;;;17.59;35.01;103416.00;5042703;28;20032;-43
2024/01/09 00:42:44;;;;;;;3.92;2.63;;;;;;;17.58;34.99;103410.75;5041068;28;20025;-44
2024/01/09 00:45:10;;;;;;;2.88;2.47;;;;;;;17.55;34.88;103417.50;5044488;28;20024;-44
2024/01/09 00:47:35;;;;;;;2.38;2.10;;;;;;;17.52;35.02;103417.06;5040771;28;20025;-43
2024/01/09 00:50:00;;;;;;;3.95;2.47;;;;;;;17.49;35.03;103419.16;5039863;28;20025;-44
2024/01/09 00:52:26;;;;;;;3.38;2.60;;;;;;;17.45;35.23;103414.34;5056493;28;20051;-41
2024/01/09 00:54:53;;;;;;;2.92;2.25;;;;;;;17.43;35.15;103422.75;5041718;28;20116;-40
2024/01/09 00:57:19;;;;;;;3.83;2.60;;;;;;;17.42;35.10;103410.09;5042163;28;20028;-40
2024/01/09 00:59:44;;;;;;;4.78;2.60;;;;;;;17.41;35.19;103415.81;5042261;28;20496;-43
2024/01/09 01:02:10;;;;;;;2.83;2.45;;;;;;;17.38;35.12;103422.56;5041915;28;20020;-44
2024/01/09 01:04:38;;;;;;;3.88;2.58;;;;;;;17.35;35.30;103414.75;5040146;28;20125;-44
2024/01/09 01:07:04;;;;;;;3.00;2.30;;;;;;;17.33;35.17;103420.44;5038519;28;20020;-44
2024/01/09 01:09:29;;;;;;;4.20;2.60;;;;;;;17.31;35.18;103422.56;5049561;28;20081;-43
2024/01/09 01:11:54;;;;;;;3.75;2.60;;;;;;;17.29;35.23;103429.31;5041689;28;20489;-40
2024/01/09 01:14:20;;;;;;;2.45;2.20;;;;;;;17.27;35.12;103426.75;5055828;28;20545;-41
2024/01/09 01:16:46;;;;;;;3.75;2.78;;;;;;;17.25;35.34;103430.75;5046629;28;20128;-39
2024/01/09 01:19:11;;;;;;;2.75;2.30;;;;;;;17.24;35.36;103427.19;5042905;28;20440;-40
2024/01/09 01:21:36;;;;;;;2.67;2.40;;;;;;;17.22;35.30;103420.22;5048649;28;20094;-40
2024/01/09 01:24:02;;;;;;;2.75;2.30;;;;;;;17.20;35.34;103428.63;5040019;28;20061;-40
2024/01/09 01:26:29;;;;;;;2.60;2.33;;;;;;;17.17;35.21;103426.34;5042097;28;20021;-41
2024/01/09 01:28:54;;;;;;;3.33;2.58;;;;;;;17.15;35.33;103429.28;5042262;28;20187;-41
2024/01/09 01:31:19;;;;;;;3.30;2.28;;;;;;;17.12;35.37;103424.22;5039436;28;20620;-45
2024/01/09 01:33:45;;;;;;;3.95;2.70;;;;;;;17.11;35.28;103422.53;5038945;28;20024;-45
2024/01/09 01:36:14;;;;;;;2.85;2.35;;;;;;;17.11;35.35;103428.00;5041935;28;20119;-45
2024/01/09 01:38:41;;;;;;;2.70;2.30;;;;;;;17.09;35.37;103432.00;5043398;28;20549;-44
2024/01/09 01:41:06;;;;;;;3.35;2.40;;;;;;;17.07;35.40;103423.13;5041173;28;20029;-43
2024/01/09 01:43:32;;;;;;;2.95;2.38;;;;;;;17.03;35.30;103422.72;5041408;28;20095;-43
2024/01/09 01:45:57;;;;;;;3.15;2.40;;;;;;;17.03;35.34;103424.63;5039951;28;20028;-44
2024/01/09 01:48:23;;;;;;;2.83;2.33;;;;;;;17.00;35.33;103418.50;5044403;28;20117;-44
2024/01/09 01:50:49;;;;;;;2.92;2.20;;;;;;;16.99;35.37;103410.47;5039589;28;20498;-44
2024/01/09 01:53:14;;;;;;;2.10;1.90;;;;;;;16.97;35.47;103415.31;5049204;28;20426;-46
2024/01/09 01:55:40;;;;;;;2.55;2.22;;;;;;;16.96;35.31;103419.13;5040741;28;20174;-43
2024/01/09 01:58:05;;;;;;;3.25;2.50;;;;;;;16.94;35.48;103415.75;5041062;28;20787;-46
2024/01/09 02:00:31;;;;;;;3.03;2.10;;;;;;;16.93;35.33;103420.38;5023333;28;20454;-42
2024/01/09 02:02:57;;;;;;;2.88;2.20;;;;;;;16.91;35.30;103425.19;5041656;28;20474;-43
2024/01/09 02:05:23;;;;;;;2.92;2.53;;;;;;;16.90;35.37;103415.28;5044409;28;20044;-43
2024/01/09 02:07:53;;;;;;;3.10;2.47;;;;;;;16.87;35.22;103418.44;5050620;28;20082;-41
2024/01/09 02:10:19;;;;;;;4.10;2.40;;;;;;;16.85;35.36;103418.63;5038594;28;21351;-41
2024/01/09 02:12:45;;;;;;;2.92;2.42;;;;;;;16.83;35.43;103419.91;5040408;28;20025;-40
2024/01/09 02:15:10;;;;;;;4.45;2.40;;;;;;;16.81;35.39;103411.03;5041089;28;20432;-41
2024/01/09 02:17:36;;;;;;;3.22;2.60;;;;;;;16.80;35.30;103418.44;5039810;28;20039;-43
2024/01/09 02:20:09;;;;;;;4.72;2.45;;;;;;;16.78;35.34;103414.22;5039954;28;20025;-44
2024/01/09 02:22:34;;;;;;;2.70;2.33;;;;;;;16.77;35.41;103415.25;5040961;28;20045;-44
2024/01/09 02:25:00;;;;;;;2.92;2.45;;;;;;;16.75;35.40;103409.97;5040243;28;20043;-44
2024/01/09 02:27:55;;;;;;;3.28;2.20;;;;;;;16.74;35.43;103415.66;5042638;28;20052;-43
2024/01/09 02:30:21;;;;;;;2.45;2.25;;;;;;;16.72;35.20;103415.03;5039492;28;20037;-42
2024/01/09 02:32:46;;;;;;;2.80;2.08;;;;;;;16.69;35.28;103405.34;5043206;28;20028;-40
2024/01/09 02:35:12;;;;;;;3.90;2.47;;;;;;;16.68;35.28;103406.38;5041918;28;20100;-40
2024/01/09 02:37:37;;;;;;;2.78;2.30;;;;;;;16.65;35.32;103404.91;5040776;28;20037;-40
2024/01/09 02:40:03;;;;;;;2.67;2.30;;;;;;;16.64;35.27;103399.59;5038373;28;20114;-40
2024/01/09 02:42:29;;;;;;;2.42;2.08;;;;;;;16.63;35.33;103398.78;5040930;28;20095;-41
2024/01/09 02:44:54;;;;;;;2.35;2.10;;;;;;;16.63;35.26;103392.47;5039336;28;20559;-40
2024/01/09 02:47:23;;;;;;;2.50;2.30;;;;;;;16.61;35.41;103395.38;5039597;28;20492;-40
2024/01/09 02:49:48;;;;;;;4.28;2.60;;;;;;;16.60;35.22;103396.47;5035388;28;20420;-40
2024/01/09 02:52:15;;;;;;;2.70;2.25;;;;;;;16.60;35.31;103398.34;5039142;28;20079;-40
2024/01/09 02:54:41;;;;;;;3.05;2.10;;;;;;;16.58;35.25;103400.44;5036979;28;20048;-40
2024/01/09 02:57:06;;;;;;;2.35;2.15;;;;;;;16.56;35.19;103400.66;5039513;28;20409;-41
2024/01/09 02:59:31;;;;;;;2.88;2.15;;;;;;;16.55;35.21;103407.16;5037614;28;20291;-46
2024/01/09 03:01:57;;;;;;;2.70;2.10;;;;;;;16.52;35.26;103391.16;5040823;28;20067;-45
2024/01/09 03:04:22;;;;;;;3.28;2.28;;;;;;;16.52;35.18;103392.00;5044955;28;20325;-45
2024/01/09 03:06:47;;;;;;;2.88;2.30;;;;;;;16.50;35.20;103394.13;5043341;28;20084;-43
2024/01/09 03:09:13;;;;;;;2.40;2.20;;;;;;;16.47;35.33;103385.47;5045342;28;20017;-42
2024/01/09 03:11:38;;;;;;;2.90;2.28;;;;;;;16.48;35.33;103382.50;5046235;28;20033;-39
2024/01/09 03:14:03;;;;;;;2.63;2.30;;;;;;;16.47;35.17;103391.78;5043425;28;20104;-40
2024/01/09 03:16:29;;;;;;;2.88;2.38;;;;;;;16.47;34.96;103385.47;5044742;28;20110;-40
2024/01/09 03:18:54;;;;;;;3.78;2.60;;;;;;;16.45;35.04;103393.03;5051430;28;20040;-44
2024/01/09 03:21:20;;;;;;;2.30;2.10;;;;;;;16.44;35.34;103386.69;5044661;28;20025;-44
2024/01/09 03:23:45;;;;;;;2.83;2.33;;;;;;;16.44;35.26;103385.84;5041747;28;20045;-39
2024/01/09 03:26:10;;;;;;;4.82;2.58;;;;;;;16.40;35.27;103385.41;5041609;28;20453;-40
2024/01/09 03:28:36;;;;;;;2.55;2.00;;;;;;;16.38;35.10;103382.03;5045572;28;20446;-45
2024/01/09 03:31:02;;;;;;;3.47;2.42;;;;;;;16.38;35.39;103386.69;5044299;28;20029;-45
2024/01/09 03:33:28;;;;;;;2.50;2.10;;;;;;;16.36;35.28;103381.41;5044146;28;20040;-45
2024/01/09 03:35:53;;;;;;;3.30;2.33;;;;;;;16.35;35.33;103383.28;5050616;28;20477;-44
2024/01/09 03:38:19;;;;;;;2.85;2.20;;;;;;;16.33;35.25;103388.16;5025280;28;20025;-43
2024/01/09 03:40:45;;;;;;;2.53;2.17;;;;;;;16.32;35.25;103372.78;5025608;28;20025;-44
2024/01/09 03:43:10;;;;;;;4.45;2.58;;;;;;;16.28;35.34;103378.84;5041960;28;20514;-44
2024/01/09 03:45:39;;;;;;;2.90;2.22;;;;;;;16.29;34.88;103386.00;5048906;28;20473;-43
2024/01/09 03:48:05;;;;;;;2.80;2.25;;;;;;;16.27;35.35;103368.94;5041920;28;20033;-44
2024/01/09 03:50:30;;;;;;;2.45;2.08;;;;;;;16.26;35.31;103369.97;5043653;28;20021;-43
2024/01/09 03:52:55;;;;;;;2.50;2.28;;;;;;;16.25;35.30;103376.50;5042934;28;20017;-40
2024/01/09 03:55:21;;;;;;;2.95;2.30;;;;;;;16.23;35.37;103376.72;5041248;28;20538;-40
2024/01/09 03:57:46;;;;;;;3.22;2.30;;;;;;;16.21;35.39;103381.56;5043075;28;20419;-40
2024/01/09 04:00:12;;;;;;;3.05;2.13;;;;;;;16.22;35.32;103374.19;5043284;28;20020;-40
2024/01/09 04:02:37;;;;;;;2.25;2.05;;;;;;;16.20;35.30;103375.22;5042625;28;20044;-40
2024/01/09 04:05:03;;;;;;;2.97;2.45;;;;;;;16.19;35.38;103373.53;5042549;28;20416;-40
2024/01/09 04:07:29;;;;;;;3.17;2.50;;;;;;;16.19;35.37;103379.00;5025037;28;20056;-40
2024/01/09 04:09:54;;;;;;;3.22;2.35;;;;;;;16.17;35.32;103374.78;5042287;28;21570;-40
2024/01/09 04:12:20;;;;;;;2.40;2.13;;;;;;;16.17;35.27;103372.06;5041277;28;20025;-40
2024/01/09 04:14:45;;;;;;;2.50;2.15;;;;;;;16.15;35.35;103365.94;5042281;28;20108;-40
2024/01/09 04:17:11;;;;;;;2.83;2.10;;;;;;;16.15;35.34;103371.41;5040794;28;20029;-40
2024/01/09 04:19:38;;;;;;;3.08;2.38;;;;;;;16.15;35.42;103365.94;5059010;28;20033;-40
2024/01/09 04:22:03;;;;;;;2.97;2.40;;;;;;;16.18;35.46;103368.28;5040746;28;20041;-40
2024/01/09 04:24:28;;;;;;;2.85;2.05;;;;;;;16.24;35.21;103364.72;5040428;28;20043;-40
2024/01/09 04:26:54;;;;;;;3.08;2.30;;;;;;;16.33;35.39;103371.72;5040545;28;20029;-43
2024/01/09 04:29:19;;;;;;;2.83;2.40;;;;;;;16.39;35.22;103361.84;5041305;28;20033;-44
2024/01/09 04:31:44;;;;;;;4.78;2.20;;;;;;;16.47;35.22;103378.09;5040916;28;20024;-44
2024/01/09 04:34:10;;;;;;;3.08;2.50;;;;;;;16.53;35.26;103365.47;5042958;28;20491;-44
2024/01/09 04:36:35;;;;;;;2.55;2.35;;;;;;;16.59;35.23;103370.13;5042062;28;20037;-40
2024/01/09 04:39:01;;;;;;;2.25;1.83;;;;;;;16.65;35.21;103366.56;5042624;28;20108;-40
2024/01/09 04:41:26;;;;;;;3.03;2.08;;;;;;;16.73;35.22;103373.75;5040333;28;20398;-42
2024/01/09 04:43:51;;;;;;;2.65;2.28;;;;;;;16.79;35.14;103364.69;5042524;28;20051;-42
2024/01/09 04:46:17;;;;;;;5.60;2.15;;;;;;;16.87;35.33;103371.03;5042456;28;20103;-45
2024/01/09 04:48:42;;;;;;;2.03;1.88;;;;;;;16.92;35.29;103372.13;5042280;28;20031;-44
2024/01/09 04:51:07;;;;;;;3.08;2.35;;;;;;;16.99;35.19;103366.66;5039529;28;20154;-41
2024/01/09 04:53:33;;;;;;;3.22;2.15;;;;;;;17.05;35.00;103364.97;5043867;28;20469;-41
2024/01/09 04:55:58;;;;;;;2.95;2.15;;;;;;;17.11;35.14;103364.97;5044742;28;20417;-41
2024/01/09 04:58:24;;;;;;;3.08;2.10;;;;;;;17.17;34.89;103366.88;5042286;28;20052;-41
2024/01/09 05:00:49;;;;;;;2.58;2.38;;;;;;;17.22;35.04;103371.72;5042210;28;20434;-41
2024/01/09 05:03:14;;;;;;;2.40;2.20;;;;;;;17.28;35.03;103370.88;5045315;28;20112;-41
2024/01/09 05:05:40;;;;;;;2.35;2.10;;;;;;;17.33;35.04;103360.13;5038745;28;20391;-40
2024/01/09 05:08:05;;;;;;;2.35;2.08;;;;;;;17.41;35.05;103359.09;5042080;28;20040;-40
2024/01/09 05:10:31;;;;;;;2.30;2.03;;;;;;;17.48;34.95;103348.97;5038460;28;20021;-41
2024/01/09 05:12:57;;;;;;;2.20;1.88;;;;;;;17.55;34.96;103343.47;5041916;28;20383;-40
2024/01/09 05:15:22;;;;;;;2.28;2.00;;;;;;;17.64;34.98;103352.31;5038497;28;20029;-41
2024/01/09 05:17:47;;;;;;;2.50;2.13;;;;;;;17.71;35.11;103349.56;5042302;28;20017;-40
2024/01/09 05:20:13;;;;;;;4.30;2.33;;;;;;;17.78;34.77;103359.44;5041622;28;20053;-44
2024/01/09 05:22:38;;;;;;;2.40;2.20;;;;;;;17.85;34.77;103364.91;5041835;28;20321;-41
2024/01/09 05:25:04;;;;;;;2.55;2.20;;;;;;;17.93;34.66;103356.44;5039885;28;20025;-43
2024/01/09 05:27:30;;;;;;;2.38;2.17;;;;;;;17.96;34.62;103350.56;5046648;28;20029;-44
2024/01/09 05:29:55;;;;;;;2.47;2.10;;;;;;;18.02;34.52;103362.56;5040188;28;20063;-45
2024/01/09 05:32:21;;;;;;;2.33;2.08;;;;;;;18.08;34.52;103367.19;5041522;28;20044;-46
2024/01/09 05:34:47;;;;;;;3.13;2.35;;;;;;;18.12;34.52;103365.72;5040058;28;20036;-45
2024/01/09 05:37:12;;;;;;;2.22;1.88;;;;;;;18.17;34.55;103370.53;5042758;28;20474;-45
2024/01/09 05:39:37;;;;;;;2.35;2.03;;;;;;;18.21;34.43;103368.19;5042246;28;20598;-45
2024/01/09 05:42:03;;;;;;;2.92;2.30;;;;;;;18.24;34.46;103362.28;5040827;28;20475;-46
2024/01/09 05:44:28;;;;;;;2.33;2.10;;;;;;;18.27;34.44;103362.69;5044761;28;20403;-45
2024/01/09 05:46:54;;;;;;;2.30;2.10;;;;;;;18.31;34.37;103363.09;5049206;28;20090;-45
2024/01/09 05:49:19;;;;;;;2.53;2.30;;;;;;;18.34;34.26;103365.41;5040576;28;20501;-45
2024/01/09 05:51:45;;;;;;;2.40;2.20;;;;;;;18.37;34.47;103369.59;5041847;28;20078;-45
2024/01/09 05:54:10;;;;;;;2.88;2.10;;;;;;;18.38;34.35;103366.66;5042216;28;20396;-41
2024/01/09 05:56:37;;;;;;;2.80;2.40;;;;;;;18.40;34.37;103369.19;5041835;28;20075;-46
2024/01/09 05:59:02;;;;;;;2.97;2.03;;;;;;;18.40;34.36;103361.78;5038361;28;20037;-45
2024/01/09 06:01:28;;;;;;;3.72;2.00;;;;;;;18.37;34.19;103364.13;5037056;28;20036;-41
2024/01/09 06:03:53;;;;;;;2.63;2.15;;;;;;;18.32;34.23;103359.31;5040612;28;20524;-45
2024/01/09 06:06:18;;;;;;;2.28;2.08;;;;;;;18.28;34.27;103367.13;5041163;28;20150;-44
2024/01/09 06:08:44;;;;;;;2.58;2.35;;;;;;;18.25;34.36;103369.47;5046695;28;20481;-45
2024/01/09 06:11:10;;;;;;;2.40;2.20;;;;;;;18.22;34.25;103368.00;5040250;28;20477;-46
2024/01/09 06:13:35;;;;;;;2.40;2.20;;;;;;;18.21;34.25;103370.94;5039965;28;20024;-43
2024/01/09 06:16:01;;;;;;;2.15;1.90;;;;;;;18.19;34.26;103375.84;5037977;28;20114;-41
2024/01/09 06:18:26;;;;;;;3.15;2.00;;;;;;;18.16;34.16;103377.13;5047612;28;20024;-45
2024/01/09 06:20:51;;;;;;;2.20;2.00;;;;;;;18.14;34.30;103375.66;5042582;28;20028;-45
2024/01/09 06:23:17;;;;;;;2.30;2.10;;;;;;;18.11;34.22;103380.50;5040802;28;20025;-43
2024/01/09 06:25:42;;;;;;;2.70;2.30;;;;;;;18.10;34.31;103375.22;5042697;28;20466;-42
2024/01/09 06:28:07;;;;;;;2.58;2.10;;;;;;;18.08;34.33;103380.09;5036750;28;20221;-42
2024/01/09 06:30:34;;;;;;;2.30;2.10;;;;;;;18.06;34.34;103374.81;5038264;28;20064;-46
2024/01/09 06:33:00;;;;;;;3.45;2.25;;;;;;;18.06;34.45;103387.69;5039967;28;20532;-42
2024/01/09 06:35:25;;;;;;;2.42;2.22;;;;;;;18.07;34.32;103392.13;5043023;28;20100;-46
2024/01/09 06:37:51;;;;;;;2.60;2.00;;;;;;;18.06;34.30;103391.28;5047001;28;20028;-44
2024/01/09 06:40:19;;;;;;;2.35;2.00;;;;;;;18.07;34.15;103398.44;5044443;28;20689;-40
2024/01/09 06:42:48;;;;;;;2.08;1.88;;;;;;;18.08;34.29;103396.56;5041835;28;20029;-40
2024/01/09 06:45:14;;;;;;;2.53;1.98;;;;;;;18.08;34.42;103396.56;5061526;28;20041;-41
2024/01/09 06:47:41;;;;;;;2.20;2.00;;;;;;;18.07;34.32;103395.69;5044579;28;20036;-44
2024/01/09 06:50:06;;;;;;;2.42;1.95;;;;;;;18.06;34.31;103404.16;5045880;28;20075;-41
2024/01/09 06:52:32;;;;;;;3.03;2.10;;;;;;;18.06;34.33;103401.41;5043273;28;20044;-44
2024/01/09 06:54:57;;;;;;;2.35;2.00;;;;;;;18.04;34.35;103390.66;5044192;28;20577;-44
2024/01/09 06:57:23;;;;;;;2.85;2.25;;;;;;;18.02;34.29;103389.19;5043737;28;20525;-44
2024/01/09 06:59:48;;;;;;;3.90;2.28;;;;;;;18.02;34.26;103389.19;5044307;28;20522;-39
2024/01/09 07:02:13;;;;;;;2.40;2.20;;;;;;;18.02;34.25;103398.25;5044387;28;20052;-43
2024/01/09 07:04:39;;;;;;;3.20;2.20;;;;;;;18.03;34.16;103396.38;5043850;28;20041;-44
2024/01/09 07:07:04;;;;;;;3.35;2.20;;;;;;;18.03;34.25;103399.94;5042875;28;20509;-40
2024/01/09 07:09:30;;;;;;;4.93;2.70;;;;;;;18.04;34.25;103412.59;5044181;28;20087;-43
2024/01/09 07:11:55;;;;;;;2.88;2.05;;;;;;;18.02;34.21;103401.00;5042720;28;20035;-40
2024/01/09 07:14:20;;;;;;;2.13;1.92;;;;;;;18.04;34.23;103407.13;5046991;28;20032;-41
2024/01/09 07:16:46;;;;;;;2.95;2.22;;;;;;;18.01;34.23;103404.78;5043203;28;20017;-44
2024/01/09 07:19:13;;;;;;;2.65;2.00;;;;;;;18.00;34.30;103413.25;5046478;28;20099;-44
2024/01/09 07:21:38;;;;;;;2.25;2.05;;;;;;;18.00;34.13;103413.25;5041580;28;20413;-42
2024/01/09 07:24:04;;;;;;;3.50;2.33;;;;;;;17.98;34.28;103418.94;5050239;28;20024;-43
2024/01/09 07:26:29;;;;;;;2.80;2.20;;;;;;;17.99;34.25;103415.16;5043272;28;20127;-41
2024/01/09 07:28:55;;;;;;;2.92;2.10;;;;;;;18.00;34.29;103413.25;5042347;28;20036;-44
2024/01/09 07:31:20;;;;;;;4.88;2.22;;;;;;;18.01;34.09;103420.41;5042528;28;20515;-41
2024/01/09 07:33:46;;;;;;;2.33;2.10;;;;;;;17.99;34.17;103415.16;5042908;28;20039;-42
2024/01/09 07:36:11;;;;;;;2.72;2.00;;;;;;;17.99;34.07;103423.38;5041025;28;20031;-44
2024/01/09 07:38:36;;;;;;;3.88;2.30;;;;;;;18.00;34.17;103436.06;5044883;28;20032;-48
2024/01/09 07:41:02;;;;;;;3.08;2.42;;;;;;;17.99;34.29;103439.84;5044636;28;20032;-44
2024/01/09 07:43:28;;;;;;;3.25;2.10;;;;;;;18.00;34.07;103447.03;5045656;28;20456;-43
2024/01/09 07:45:54;;;;;;;3.85;2.05;;;;;;;18.00;34.17;103441.53;5042577;28;20021;-45
2024/01/09 07:48:19;;;;;;;2.30;2.10;;;;;;;18.02;33.99;103444.91;5045702;28;20039;-42
2024/01/09 07:50:45;;;;;;;2.83;2.20;;;;;;;18.04;34.02;103448.28;5047647;28;20036;-43
2024/01/09 07:53:10;;;;;;;3.47;2.30;;;;;;;18.05;33.91;103462.84;5042518;28;20017;-42
2024/01/09 07:55:35;;;;;;;3.38;2.40;;;;;;;18.04;33.82;103461.16;5043902;28;20079;-41
2024/01/09 07:58:01;;;;;;;3.08;2.30;;;;;;;18.05;33.77;103454.59;5042865;28;20021;-40
2024/01/09 08:00:27;;;;;;;4.07;2.35;;;;;;;18.04;34.04;103475.72;5048011;28;20115;-43
2024/01/09 08:02:52;;;;;;;2.90;2.60;;;;;;;18.02;33.95;103466.03;5043157;28;20478;-40
2024/01/09 08:05:18;;;;;;;4.25;2.13;;;;;;;18.03;33.97;103467.72;5042328;28;20053;-39
2024/01/09 08:07:43;;;;;;;3.33;2.50;;;;;;;18.02;33.91;103466.84;5041904;28;20060;-43
2024/01/09 08:10:09;;;;;;;2.88;2.42;;;;;;;18.01;33.85;103467.91;5042530;28;20052;-40
2024/01/09 08:12:35;;;;;;;7.45;2.50;;;;;;;18.00;33.71;103471.72;5042553;28;20036;-41
2024/01/09 08:15:01;;;;;;;2.50;2.28;;;;;;;18.00;33.78;103479.09;5043324;28;20032;-41
2024/01/09 08:17:26;;;;;;;2.53;2.20;;;;;;;18.00;33.70;103485.44;5041875;28;20082;-41
2024/01/09 08:19:52;;;;;;;3.67;2.45;;;;;;;18.00;33.63;103488.19;5048307;28;20029;-40
2024/01/09 08:22:18;;;;;;;3.08;2.47;;;;;;;18.00;33.68;103487.34;5041997;28;20021;-48
2024/01/09 08:24:43;;;;;;;3.20;2.60;;;;;;;18.00;33.68;103488.19;5044678;28;20028;-42
2024/01/09 08:27:09;;;;;;;2.92;2.40;;;;;;;17.99;33.72;103486.50;5044236;28;20661;-46
2024/01/09 08:29:34;;;;;;;3.40;2.35;;;;;;;17.99;33.48;103486.50;5041957;28;20037;-44
2024/01/09 08:31:59;;;;;;;4.40;2.42;;;;;;;17.99;33.51;103489.25;5044652;28;20087;-44
2024/01/09 08:34:26;;;;;;;4.18;2.70;;;;;;;17.99;33.46;103481.00;5047462;28;20464;-41
2024/01/09 08:36:51;;;;;;;4.13;2.70;;;;;;;17.98;33.38;103490.28;5042921;28;20067;-45
2024/01/09 08:39:17;;;;;;;2.95;2.47;;;;;;;17.99;33.51;103491.13;5045328;28;20032;-41
2024/01/09 08:41:42;;;;;;;3.22;2.40;;;;;;;18.00;33.45;103492.81;5041225;28;20039;-40
2024/01/09 08:44:08;;;;;;;4.20;2.50;;;;;;;17.99;33.39;103492.00;5058423;28;20275;-46
2024/01/09 08:46:33;;;;;;;3.80;2.40;;;;;;;17.98;33.33;103498.53;5047809;28;20068;-41
2024/01/09 08:49:00;;;;;;;3.63;2.70;;;;;;;17.96;33.27;103504.25;5039891;28;20323;-45
2024/01/09 08:51:25;;;;;;;3.80;2.42;;;;;;;17.95;33.28;103496.19;5041055;28;20017;-45
2024/01/09 08:53:53;;;;;;;3.20;2.42;;;;;;;17.94;33.07;103497.25;5044114;28;20567;-41
2024/01/09 08:56:19;;;;;;;3.13;2.42;;;;;;;17.92;33.18;103499.34;5041568;28;20457;-46
2024/01/09 08:58:44;;;;;;;3.45;2.38;;;;;;;17.90;33.25;103491.34;5044002;28;20428;-46
2024/01/09 09:01:10;;;;;;;3.45;2.40;;;;;;;17.90;33.32;103487.72;5048022;28;20045;-42
2024/01/09 09:03:36;;;;;;;2.80;2.50;;;;;;;17.88;33.29;103495.31;5040602;28;20067;-41
2024/01/09 09:06:02;;;;;;;2.50;2.30;;;;;;;17.87;33.27;103496.41;5040332;28;20421;-41
2024/01/09 09:08:27;;;;;;;2.47;2.28;;;;;;;17.87;33.38;103489.00;5041212;28;20031;-41
2024/01/09 09:10:53;;;;;;;3.67;2.53;;;;;;;17.88;33.37;103492.56;5041002;28;20029;-41
2024/01/09 09:13:18;;;;;;;3.58;2.67;;;;;;;17.89;33.04;103491.53;5040593;28;20521;-41
2024/01/09 09:15:44;;;;;;;4.40;2.70;;;;;;;17.92;32.82;103491.13;5042837;28;20033;-42
2024/01/09 09:18:10;;;;;;;3.38;2.67;;;;;;;17.93;32.85;103490.06;5045328;28;20039;-41
2024/01/09 09:20:36;;;;;;;2.80;2.38;;;;;;;17.94;32.75;103492.63;5040537;28;20302;-41
2024/01/09 09:23:01;;;;;;;3.42;2.40;;;;;;;17.96;32.66;103485.03;5042297;28;20111;-41
2024/01/09 09:25:27;;;;;;;3.15;2.50;;;;;;;17.99;32.65;103491.13;5048516;28;20469;-42
2024/01/09 09:27:53;;;;;;;3.50;2.47;;;;;;;18.01;32.63;103469.81;5040494;28;20021;-41
2024/01/09 09:30:19;;;;;;;4.85;2.40;;;;;;;18.04;32.93;103485.88;5040624;28;20035;-43
2024/01/09 09:32:44;;;;;;;4.05;2.67;;;;;;;18.05;32.58;103479.28;5041618;28;20029;-43
2024/01/09 09:35:09;;;;;;;21.50;2.90;;;;;;;18.09;32.67;103477.84;5043017;28;20119;-41
2024/01/09 09:37:35;;;;;;;14.00;3.03;;;;;;;18.15;33.03;103460.50;5062395;28;20155;-41
2024/01/09 09:40:01;;;;;;;3.70;2.40;;;;;;;18.23;33.16;103475.91;5041384;28;20064;-45
2024/01/09 09:42:28;;;;;;;4.82;2.38;;;;;;;18.30;33.01;103475.91;5041425;28;20056;-46
2024/01/09 09:44:54;;;;;;;5.30;2.45;;;;;;;18.37;32.89;103472.06;5040959;28;20055;-45
2024/01/09 09:47:21;;;;;;;4.13;2.53;;;;;;;18.43;33.10;103462.97;5041248;28;20393;-38
2024/01/09 09:49:48;;;;;;;3.10;2.50;;;;;;;18.52;32.97;103470.97;5038641;28;20036;-37
2024/01/09 09:52:14;;;;;;;3.47;2.35;;;;;;;18.58;32.75;103475.59;5041556;28;20028;-44
2024/01/09 09:54:40;;;;;;;3.30;2.42;;;;;;;18.65;32.82;103472.81;5041120;28;20461;-40
2024/01/09 09:57:06;;;;;;;5.75;2.50;;;;;;;18.69;32.66;103472.16;5042538;28;20025;-40
2024/01/09 09:59:31;;;;;;;3.42;2.65;;;;;;;18.77;32.50;103476.53;5037791;28;20600;-39
2024/01/09 10:01:57;;;;;;;2.35;2.15;;;;;;;18.81;32.30;103476.97;5051360;28;20039;-39
2024/01/09 10:04:30;;;;;;;2.42;2.10;;;;;;;18.85;32.47;103476.31;5044444;28;20537;-41
2024/01/09 10:06:56;;;;;;;2.58;2.38;;;;;;;18.88;32.17;103470.38;5041667;28;20095;-40
2024/01/09 10:09:23;;;;;;;2.83;2.20;;;;;;;18.90;32.40;103481.97;5040842;28;20028;-42
2024/01/09 10:11:49;;;;;;;3.50;2.40;;;;;;;18.93;32.14;103480.72;5043413;28;20020;-43
2024/01/09 10:14:15;;;;;;;4.00;2.63;;;;;;;18.94;31.96;103479.66;5042902;28;20035;-44
2024/01/09 10:16:53;;;;;;;4.20;2.58;;;;;;;18.97;32.02;103478.38;5043766;28;20033;-45
2024/01/09 10:19:22;;;;;;;2.80;2.40;;;;;;;18.98;31.93;103480.94;5043816;28;20282;-44
2024/01/09 10:21:51;;;;;;;2.80;2.28;;;;;;;19.01;31.94;103474.16;5043608;28;20396;-42
2024/01/09 10:24:17;;;;;;;2.83;2.28;;;;;;;19.03;31.79;103477.50;5050222;28;20031;-39
2024/01/09 10:26:43;;;;;;;7.85;2.50;;;;;;;19.06;31.85;103471.56;5043761;28;20029;-41
2024/01/09 10:29:09;;;;;;;2.60;2.40;;;;;;;19.08;31.62;103480.47;5050032;28;20033;-41
2024/01/09 10:31:35;;;;;;;2.83;2.40;;;;;;;19.09;31.61;103468.38;5044323;28;20036;-45
2024/01/09 10:34:00;;;;;;;3.28;2.47;;;;;;;19.11;31.75;103458.00;5044779;28;20024;-41
2024/01/09 10:36:27;;;;;;;3.30;2.15;;;;;;;19.14;31.45;103465.81;5046115;28;20091;-46
2024/01/09 10:39:02;;;;;;;3.25;2.50;;;;;;;19.16;31.83;103462.84;5046917;28;20029;-41
2024/01/09 10:41:27;;;;;;;;;;;;;;;19.19;31.74;103460.50;5045293;28;20580;-42
2024/01/09 10:43:52;;;;;;;2.40;2.20;;;;;;;19.22;31.42;103446.28;5045270;28;20019;-42
2024/01/09 10:46:23;;;;;;;136.10;7.60;;;;;;;19.25;31.49;103450.50;5043666;28;20087;-42
2024/01/09 10:48:48;;;;;;;3.92;2.20;;;;;;;19.28;31.38;103443.75;5043469;28;20505;-40
2024/01/09 10:51:15;;;;;;;6.03;2.45;;;;;;;19.29;31.55;103438.00;5047928;28;20174;-42
2024/01/09 10:53:42;;;;;;;5.40;2.03;;;;;;;19.32;31.22;103436.72;5059879;28;20410;-43
2024/01/09 10:56:08;;;;;;;3.33;2.40;;;;;;;19.34;31.30;103438.19;5046935;28;20095;-45
2024/01/09 10:58:35;;;;;;;3.22;2.20;;;;;;;19.38;31.29;103431.16;5044892;28;20641;-44
2024/01/09 11:01:01;;;;;;;4.85;2.33;;;;;;;19.42;31.22;103426.06;5045603;28;20048;-46
2024/01/09 11:03:26;;;;;;;6.47;2.70;;;;;;;19.44;31.20;103423.94;5047418;28;20636;-46
2024/01/09 11:05:54;;;;;;;2.55;2.10;;;;;;;19.48;30.95;103427.91;5042988;28;20060;-45
2024/01/09 11:08:19;;;;;;;4.63;2.40;;;;;;;19.49;30.86;103421.34;5044009;28;20056;-46
2024/01/09 11:10:45;;;;;;;2.65;2.33;;;;;;;19.49;31.03;103424.09;5049090;28;20052;-46
2024/01/09 11:13:12;;;;;;;2.95;2.10;;;;;;;19.51;30.94;103421.09;5047442;28;20070;-44
2024/01/09 11:15:44;;;;;;;5.85;2.28;;;;;;;19.50;31.22;103420.28;5045871;28;20104;-45
2024/01/09 11:18:14;;;;;;;2.80;2.20;;;;;;;19.50;30.95;103416.69;5043344;28;20082;-42